X  Sluiten METAR luchtvaart weer gegevens      LFQQ Lille-Lesquin Airport
Temperatuur
12°C Temperatuur
10°C Dauwpunt
88% Vochtigheid



Wind
10 KM/U
6 MPH
3 M/S
5 KTS



240°
WZW
Huidig weer

Helder Helder
Luchtdruk 1014.9 (hPa) - 29.97 (inHg)
Zicht 6 (mijl) - 9.7 (km)
Vliegveld
Vliegveld code LFQQ

Locatie : Lille-Lesquin Airport
Afstand: 45 (km)

Metar:
LFQQ 122230Z AUTO 24005KT CAVOK 12/10 Q1015 TEMPO 4000 BR

Tijd: 12-07-2024 22:30 CEST